Time;durP1;ratioP1;P1;durP2;ratioP2;P2;SDS_P1;SDS_P2;PMS_P1;PMS_P2;Temp;Humidity;BMP_temperature;BMP_pressure;BME280_temperature;BME280_humidity;BME280_pressure;Samples;Min_cycle;Max_cycle;Signal;HPM_P1;HPM_P2
2020/12/30 00:01:21;;;;;;;14.60;11.17;;;;;;;4.01;100.00;98339.56;5060642;28;20271;-30
2020/12/30 00:04:07;;;;;;;17.07;11.70;;;;;;;4.06;100.00;98341.19;5059562;28;20557;-30
2020/12/30 00:06:55;;;;;;;18.27;11.77;;;;;;;3.92;100.00;98342.25;5059828;28;20196;-30
2020/12/30 00:09:45;;;;;;;17.13;11.27;;;;;;;3.84;100.00;98337.22;5059712;28;20474;-30
2020/12/30 00:12:33;;;;;;;14.77;11.53;;;;;;;3.84;100.00;98333.81;5059125;28;20247;-30
2020/12/30 00:15:21;;;;;;;16.63;11.00;;;;;;;3.90;100.00;98341.44;5059140;28;20201;-30
2020/12/30 00:18:06;;;;;;;13.80;10.83;;;;;;;3.96;100.00;98338.78;5059716;28;20510;-30
2020/12/30 00:20:52;;;;;;;14.13;10.67;;;;;;;3.82;100.00;98336.41;5059809;28;20196;-30
2020/12/30 00:23:39;;;;;;;18.27;11.43;;;;;;;3.85;100.00;98343.19;5059615;28;20243;-30
2020/12/30 00:26:26;;;;;;;17.13;10.77;;;;;;;3.92;100.00;98339.69;5059220;28;20562;-30
2020/12/30 00:29:14;;;;;;;15.43;10.03;;;;;;;3.87;100.00;98342.31;5060054;28;20299;-30
2020/12/30 00:32:02;;;;;;;14.83;11.47;;;;;;;4.06;100.00;98355.69;5059357;28;20207;-30
2020/12/30 00:34:49;;;;;;;18.40;10.87;;;;;;;4.13;100.00;98352.19;5060170;28;20247;-30
2020/12/30 00:37:35;;;;;;;15.57;10.93;;;;;;;4.05;100.00;98349.72;5060346;28;20231;-29
2020/12/30 00:40:21;;;;;;;15.83;11.47;;;;;;;3.83;100.00;98352.59;5062003;28;20201;-30
2020/12/30 00:43:07;;;;;;;14.73;11.47;;;;;;;3.94;100.00;98356.72;5058262;28;20520;-30
2020/12/30 00:45:53;;;;;;;14.70;10.93;;;;;;;4.06;100.00;98353.97;5061215;28;20212;-30
2020/12/30 00:48:41;;;;;;;16.03;10.67;;;;;;;3.76;100.00;98347.56;5061059;28;20272;-30
2020/12/30 00:51:27;;;;;;;16.43;11.23;;;;;;;3.86;100.00;98344.88;5058710;28;20216;-30
2020/12/30 00:54:13;;;;;;;15.37;10.63;;;;;;;3.71;100.00;98351.03;5060065;28;20228;-30
2020/12/30 00:56:59;;;;;;;15.93;9.83;;;;;;;3.63;100.00;98353.69;5059017;28;20692;-29
2020/12/30 00:59:45;;;;;;;14.80;10.43;;;;;;;3.68;100.00;98354.47;5061218;28;20243;-29
2020/12/30 01:02:31;;;;;;;19.07;10.33;;;;;;;3.92;100.00;98358.44;5059137;28;20235;-30
2020/12/30 01:05:19;;;;;;;15.70;9.77;;;;;;;4.13;100.00;98367.53;5058802;28;20250;-30
2020/12/30 01:08:05;;;;;;;15.60;11.67;;;;;;;3.71;100.00;98367.22;5058058;28;20255;-30
2020/12/30 01:10:52;;;;;;;13.17;11.07;;;;;;;3.71;100.00;98358.72;5060208;28;20201;-30
2020/12/30 01:13:38;;;;;;;16.63;12.10;;;;;;;3.74;100.00;98372.31;5058607;28;20203;-30
2020/12/30 01:16:24;;;;;;;17.80;11.63;;;;;;;3.51;100.00;98365.78;5059393;28;20203;-30
2020/12/30 01:19:10;;;;;;;15.03;11.60;;;;;;;3.49;100.00;98376.00;5058690;28;20294;-30
2020/12/30 01:21:57;;;;;;;15.33;11.40;;;;;;;3.44;100.00;98370.09;5061664;28;20464;-29
2020/12/30 01:24:44;;;;;;;15.63;11.27;;;;;;;3.24;100.00;98366.91;5062067;28;20236;-30
2020/12/30 01:27:30;;;;;;;17.57;11.43;;;;;;;3.18;100.00;98375.50;5064261;28;20462;-30
2020/12/30 01:30:16;;;;;;;16.67;11.07;;;;;;;3.15;100.00;98374.69;5061266;28;20491;-30
2020/12/30 01:33:03;;;;;;;15.40;10.03;;;;;;;3.06;100.00;98371.34;5062847;28;20258;-30
2020/12/30 01:35:49;;;;;;;19.13;10.43;;;;;;;3.04;100.00;98375.63;5062013;28;20201;-30
2020/12/30 01:38:37;;;;;;;15.13;10.93;;;;;;;3.07;100.00;98372.19;5063762;28;20231;-30
2020/12/30 01:41:24;;;;;;;14.23;11.40;;;;;;;3.10;100.00;98382.38;5061540;28;20358;-29
2020/12/30 01:44:10;;;;;;;16.40;11.13;;;;;;;3.06;100.00;98380.72;5062792;28;20196;-30
2020/12/30 01:46:58;;;;;;;14.73;11.20;;;;;;;2.98;100.00;98378.25;5062499;28;20216;-30
2020/12/30 01:49:44;;;;;;;16.63;11.57;;;;;;;2.94;100.00;98380.84;5062046;28;20197;-30
2020/12/30 01:52:34;;;;;;;15.30;10.60;;;;;;;2.83;100.00;98380.06;5061765;28;20203;-29
2020/12/30 01:55:24;;;;;;;15.63;10.67;;;;;;;2.91;100.00;98385.97;5062987;28;20291;-30
2020/12/30 01:58:12;;;;;;;14.97;11.83;;;;;;;3.15;100.00;98390.00;5061419;28;20633;-29
2020/12/30 02:01:01;;;;;;;15.03;10.87;;;;;;;2.94;100.00;98386.78;5062541;28;20204;-30
2020/12/30 02:03:47;;;;;;;18.47;11.90;;;;;;;2.60;100.00;98395.59;5061383;28;20695;-30
2020/12/30 02:06:35;;;;;;;21.70;12.37;;;;;;;2.74;100.00;98407.38;5061365;28;20199;-30
2020/12/30 02:09:21;;;;;;;16.23;11.60;;;;;;;2.64;100.00;98402.34;5060560;28;20200;-30
2020/12/30 02:12:09;;;;;;;16.90;11.27;;;;;;;2.59;100.00;98401.56;5062051;28;20216;-30
2020/12/30 02:14:56;;;;;;;16.20;11.53;;;;;;;2.59;100.00;98410.06;5061296;28;20201;-30
2020/12/30 02:17:42;;;;;;;14.60;10.97;;;;;;;2.52;100.00;98408.41;5061208;28;20529;-30
2020/12/30 02:20:30;;;;;;;16.30;10.67;;;;;;;2.51;100.00;98416.06;5061360;28;20200;-29
2020/12/30 02:23:18;;;;;;;16.67;10.57;;;;;;;2.66;100.00;98421.91;5061604;28;20474;-30
2020/12/30 02:26:05;;;;;;;14.33;11.20;;;;;;;2.63;100.00;98418.50;5061964;28;20248;-30
2020/12/30 02:28:51;;;;;;;16.57;10.30;;;;;;;2.70;100.00;98422.72;5061059;28;20200;-30
2020/12/30 02:31:38;;;;;;;17.03;10.50;;;;;;;2.52;100.00;98416.06;5061960;28;20263;-30
2020/12/30 02:34:24;;;;;;;15.90;11.23;;;;;;;2.57;100.00;98413.47;5061016;28;20200;-30
2020/12/30 02:37:11;;;;;;;15.10;10.20;;;;;;;2.60;100.00;98418.56;5061169;28;20228;-30
2020/12/30 02:39:58;;;;;;;15.63;10.60;;;;;;;2.60;100.00;98426.22;5060683;28;20488;-30
2020/12/30 02:42:46;;;;;;;15.63;10.43;;;;;;;2.86;100.00;98424.28;5062287;28;20284;-30
2020/12/30 02:45:32;;;;;;;15.60;11.10;;;;;;;2.73;100.00;98423.56;5060848;28;20200;-30
2020/12/30 02:48:18;;;;;;;16.00;11.13;;;;;;;2.75;100.00;98426.09;5066527;28;20606;-30
2020/12/30 02:51:05;;;;;;;13.67;10.70;;;;;;;2.67;100.00;98428.69;5060743;28;20761;-30
2020/12/30 02:53:51;;;;;;;17.53;11.43;;;;;;;2.55;100.00;98430.50;5062363;28;20196;-30
2020/12/30 02:56:37;;;;;;;19.93;10.97;;;;;;;2.66;100.00;98436.38;5060682;28;20192;-30
2020/12/30 02:59:24;;;;;;;18.30;11.73;;;;;;;2.76;100.00;98441.41;5059485;28;20258;-30
2020/12/30 03:02:10;;;;;;;16.80;10.33;;;;;;;2.74;100.00;98447.38;5060863;28;20208;-30
2020/12/30 03:04:56;;;;;;;16.80;11.07;;;;;;;2.66;100.00;98452.53;5059914;28;20204;-30
2020/12/30 03:07:42;;;;;;;13.90;10.87;;;;;;;2.63;100.00;98454.25;5060682;28;20204;-30
2020/12/30 03:10:28;;;;;;;14.40;10.73;;;;;;;2.68;100.00;98458.47;5060584;28;20203;-30
2020/12/30 03:13:15;;;;;;;14.60;11.13;;;;;;;2.52;100.00;98464.53;5060881;28;20492;-29
2020/12/30 03:16:02;;;;;;;18.63;11.10;;;;;;;2.36;100.00;98456.13;5059481;28;20520;-30
2020/12/30 03:18:48;;;;;;;17.23;11.13;;;;;;;2.37;100.00;98455.28;5060996;28;20236;-30
2020/12/30 03:21:34;;;;;;;16.93;10.43;;;;;;;2.41;100.00;98453.53;5060363;28;20610;-30
2020/12/30 03:24:20;;;;;;;16.00;10.83;;;;;;;2.32;100.00;98454.44;5060762;28;20251;-30
2020/12/30 03:27:06;;;;;;;17.73;10.83;;;;;;;2.54;100.00;98451.78;5059943;28;20475;-29
2020/12/30 03:29:52;;;;;;;16.30;10.80;;;;;;;2.41;100.00;98454.38;5060858;28;20207;-30
2020/12/30 03:32:40;;;;;;;16.93;11.03;;;;;;;2.41;100.00;98445.88;5060433;28;20539;-30
2020/12/30 03:35:26;;;;;;;17.83;10.90;;;;;;;2.53;100.00;98452.63;5062256;28;20201;-30
2020/12/30 03:38:12;;;;;;;15.23;10.63;;;;;;;2.33;100.00;98463.78;5060959;28;20224;-30
2020/12/30 03:40:59;;;;;;;17.47;11.27;;;;;;;2.28;100.00;98464.66;5059493;28;20564;-30
2020/12/30 03:43:45;;;;;;;17.43;12.03;;;;;;;2.32;100.00;98467.19;5059945;28;20200;-30
2020/12/30 03:46:31;;;;;;;17.87;11.37;;;;;;;2.45;100.00;98465.41;5059714;28;20334;-30
2020/12/30 03:49:18;;;;;;;16.57;11.77;;;;;;;2.33;100.00;98458.69;5060917;28;20215;-31
2020/12/30 03:52:04;;;;;;;15.37;10.53;;;;;;;2.34;100.00;98465.50;5059993;28;20610;-30
2020/12/30 03:54:49;;;;;;;18.27;11.40;;;;;;;2.30;100.00;98465.50;5060160;28;20200;-30
2020/12/30 03:57:36;;;;;;;19.70;12.23;;;;;;;2.22;100.00;98469.78;5059792;28;20558;-30
2020/12/30 04:00:21;;;;;;;17.83;12.50;;;;;;;2.34;100.00;98468.03;5059728;28;20506;-30
2020/12/30 04:03:07;;;;;;;17.77;11.57;;;;;;;2.28;100.00;98467.22;5059546;28;20200;-30
2020/12/30 04:05:57;;;;;;;18.50;12.73;;;;;;;2.33;100.00;98463.78;5060268;28;20208;-30
2020/12/30 04:08:43;;;;;;;18.27;12.23;;;;;;;2.38;100.00;98464.63;5060440;28;20263;-30
2020/12/30 04:11:29;;;;;;;16.03;11.20;;;;;;;2.37;100.00;98456.97;5060008;28;20275;-30
2020/12/30 04:14:17;;;;;;;16.93;12.07;;;;;;;2.41;100.00;98456.94;5059238;28;20501;-30
2020/12/30 04:17:03;;;;;;;17.70;11.57;;;;;;;2.40;100.00;98456.94;5058770;28;20204;-29
2020/12/30 04:19:49;;;;;;;18.10;12.90;;;;;;;2.66;100.00;98464.44;5060295;28;20282;-30
2020/12/30 04:22:36;;;;;;;18.77;12.37;;;;;;;2.64;100.00;98461.88;5058812;28;20192;-30
2020/12/30 04:25:22;;;;;;;20.47;11.20;;;;;;;2.54;100.00;98469.63;5060401;28;20235;-30
2020/12/30 04:28:08;;;;;;;15.80;12.37;;;;;;;2.77;100.00;98460.13;5058946;28;20263;-30
2020/12/30 04:30:54;;;;;;;17.43;12.13;;;;;;;2.67;100.00;98464.44;5059395;28;20200;-30
2020/12/30 04:33:41;;;;;;;19.70;12.83;;;;;;;2.64;100.00;98463.59;5058686;28;20471;-30
2020/12/30 04:36:26;;;;;;;19.10;12.63;;;;;;;2.64;100.00;98463.59;5058009;28;20216;-30
2020/12/30 04:39:14;;;;;;;17.23;12.10;;;;;;;2.67;100.00;98466.13;5060202;28;20228;-30
2020/12/30 04:42:01;;;;;;;18.03;12.47;;;;;;;2.59;100.00;98463.66;5059206;28;20251;-30
2020/12/30 04:44:52;;;;;;;18.10;12.57;;;;;;;2.87;100.00;98463.44;5059437;28;20280;-30
2020/12/30 04:47:45;;;;;;;17.57;12.17;;;;;;;2.65;100.00;98466.13;5059351;28;20273;-30
2020/12/30 04:50:31;;;;;;;19.20;13.37;;;;;;;2.78;100.00;98466.94;5059168;28;20306;-29
2020/12/30 04:53:21;;;;;;;19.07;13.03;;;;;;;2.64;100.00;98469.53;5059947;28;20204;-30
2020/12/30 04:56:10;;;;;;;18.90;13.03;;;;;;;2.78;100.00;98466.94;5059191;28;20204;-29
2020/12/30 04:58:55;;;;;;;19.73;13.17;;;;;;;2.84;100.00;98477.06;5062144;28;20227;-30
2020/12/30 05:01:54;;;;;;;20.67;12.93;;;;;;;2.85;100.00;98476.22;5062590;28;20200;-30
2020/12/30 05:04:42;;;;;;;20.33;13.23;;;;;;;2.87;100.00;98482.16;5061784;28;20192;-30
2020/12/30 05:07:29;;;;;;;18.93;13.53;;;;;;;2.92;100.00;98485.53;5062983;28;20470;-29
2020/12/30 05:10:17;;;;;;;21.37;13.60;;;;;;;2.83;100.00;98480.47;5061886;28;20292;-30
2020/12/30 05:13:04;;;;;;;19.83;13.90;;;;;;;2.85;100.00;98486.44;5065709;28;20523;-31
2020/12/30 05:15:50;;;;;;;19.87;13.97;;;;;;;2.75;100.00;98488.22;5062669;28;20196;-30
2020/12/30 05:18:40;;;;;;;23.47;14.13;;;;;;;2.87;100.00;98491.53;5060956;28;20232;-30
2020/12/30 05:21:26;;;;;;;22.60;14.13;;;;;;;2.69;100.00;98497.59;5061457;28;20193;-30
2020/12/30 05:24:12;;;;;;;22.23;14.37;;;;;;;2.62;100.00;98496.78;5061799;28;20196;-31
2020/12/30 05:26:59;;;;;;;19.23;14.10;;;;;;;2.70;100.00;98502.69;5021748;28;20197;-30
2020/12/30 05:29:49;;;;;;;18.20;13.27;;;;;;;2.66;100.00;98505.28;5021941;28;20209;-30
2020/12/30 05:32:37;;;;;;;22.10;14.13;;;;;;;2.68;100.00;98513.78;5021954;28;20210;-30
2020/12/30 05:35:22;;;;;;;20.40;14.57;;;;;;;2.76;100.00;98514.59;5023098;28;20601;-30
2020/12/30 05:38:09;;;;;;;20.03;13.63;;;;;;;2.64;100.00;98514.63;5021914;28;20229;-30
2020/12/30 05:40:56;;;;;;;20.87;14.63;;;;;;;2.84;100.00;98515.38;5022312;28;20198;-30
2020/12/30 05:43:41;;;;;;;20.83;14.57;;;;;;;2.82;100.00;98524.75;5021267;28;20206;-30
2020/12/30 05:46:33;;;;;;;21.77;14.83;;;;;;;2.87;100.00;98515.34;5021761;28;20346;-29
2020/12/30 05:49:35;;;;;;;18.50;13.40;;;;;;;2.81;100.00;98522.19;5021103;28;20210;-30
2020/12/30 05:52:27;;;;;;;20.17;14.93;;;;;;;3.02;100.00;98525.47;5021947;28;20289;-30
2020/12/30 05:55:15;;;;;;;21.17;13.90;;;;;;;2.97;100.00;98532.31;5020829;28;20267;-30
2020/12/30 05:58:07;;;;;;;23.07;15.90;;;;;;;3.08;100.00;98533.09;5021278;28;20640;-30
2020/12/30 06:00:53;;;;;;;22.90;15.70;;;;;;;2.98;100.00;98534.03;5021082;28;20616;-30
2020/12/30 06:03:42;;;;;;;22.37;16.07;;;;;;;3.06;100.00;98533.94;5021697;28;20216;-29
2020/12/30 06:06:29;;;;;;;20.57;14.80;;;;;;;3.04;100.00;98533.97;5020577;28;20257;-30
2020/12/30 06:09:17;;;;;;;24.83;16.93;;;;;;;3.18;100.00;98539.00;5021702;28;20198;-29
2020/12/30 06:12:07;;;;;;;23.20;16.77;;;;;;;3.16;100.00;98535.59;5021069;28;20194;-30
2020/12/30 06:14:55;;;;;;;20.53;14.43;;;;;;;3.16;100.00;98539.84;5022016;28;20281;-29
2020/12/30 06:17:52;;;;;;;22.97;16.20;;;;;;;3.20;100.00;98536.44;5021553;28;20214;-29
2020/12/30 06:20:40;;;;;;;22.57;15.53;;;;;;;3.18;100.00;98540.69;5021524;28;20298;-30
2020/12/30 06:23:29;;;;;;;23.80;19.05;;;;;;;3.44;100.00;98554.09;5020657;28;20462;-30
2020/12/30 06:26:18;;;;;;;21.33;14.90;;;;;;;3.31;100.00;98558.47;5021212;28;20531;-30
2020/12/30 06:29:11;;;;;;;24.70;16.27;;;;;;;3.34;100.00;98558.44;5020246;28;20206;-30
2020/12/30 06:31:57;;;;;;;23.27;16.50;;;;;;;3.31;100.00;98562.72;5022305;28;20481;-30
2020/12/30 06:34:43;;;;;;;24.03;15.67;;;;;;;3.26;100.00;98567.03;5020306;28;20318;-29
2020/12/30 06:37:35;;;;;;;23.33;15.07;;;;;;;3.34;100.00;98570.38;5022298;28;20213;-30
2020/12/30 06:40:28;;;;;;;21.93;15.00;;;;;;;3.36;100.00;98558.44;5020272;28;20197;-30
2020/12/30 06:43:41;;;;;;;23.13;16.17;;;;;;;3.44;100.00;98567.72;5021951;28;20205;-30
2020/12/30 06:46:36;;;;;;;40.83;31.20;;;;;;;3.52;100.00;98571.94;5020062;28;20222;-30
2020/12/30 06:49:22;;;;;;;31.17;21.63;;;;;;;3.40;100.00;98573.72;5021913;28;20244;-30
2020/12/30 06:52:26;;;;;;;22.53;15.70;;;;;;;3.56;100.00;98584.69;5020588;28;20194;-30
2020/12/30 06:55:13;;;;;;;22.20;15.53;;;;;;;3.56;100.00;98584.69;5020676;28;20644;-30
2020/12/30 06:58:02;;;;;;;22.40;16.43;;;;;;;3.66;100.00;98581.19;5020639;28;20253;-30
2020/12/30 07:00:57;;;;;;;21.00;15.97;;;;;;;3.88;100.00;98593.78;5020986;28;20473;-30
2020/12/30 07:03:43;;;;;;;22.27;14.20;;;;;;;3.52;100.00;98600.91;5019790;28;20198;-30
2020/12/30 07:06:32;;;;;;;21.67;16.07;;;;;;;3.87;100.00;98612.53;5020860;28;20197;-30
2020/12/30 07:09:30;;;;;;;20.30;15.30;;;;;;;3.80;100.00;98610.03;5021408;28;20659;-30
2020/12/30 07:12:17;;;;;;;24.50;14.70;;;;;;;3.62;100.00;98606.78;5021465;28;20217;-31
2020/12/30 07:15:04;;;;;;;24.00;14.93;;;;;;;3.79;100.00;98605.81;5019967;28;20209;-30
2020/12/30 07:17:56;;;;;;;18.50;14.03;;;;;;;3.79;100.00;98613.47;5058736;28;20520;-29
2020/12/30 07:20:44;;;;;;;25.83;14.77;;;;;;;3.76;100.00;98615.22;5060305;28;20200;-31
2020/12/30 07:23:37;;;;;;;22.90;15.47;;;;;;;3.74;100.00;98615.22;5059211;28;20287;-29
2020/12/30 07:26:23;;;;;;;20.30;14.17;;;;;;;3.62;100.00;98612.75;5061076;28;20227;-30
2020/12/30 07:29:13;;;;;;;23.10;15.97;;;;;;;3.80;100.00;98621.97;5059941;28;20219;-30
2020/12/30 07:32:01;;;;;;;23.87;16.83;;;;;;;3.84;100.00;98628.75;5062160;28;20200;-30
2020/12/30 07:34:48;;;;;;;24.77;16.43;;;;;;;3.72;100.00;98624.59;5059188;28;20351;-31
2020/12/30 07:37:37;;;;;;;27.73;17.37;;;;;;;3.73;100.00;98625.44;5060700;28;20192;-30
2020/12/30 07:40:23;;;;;;;23.97;15.97;;;;;;;3.87;100.00;98636.41;5059813;28;20297;-30
2020/12/30 07:43:09;;;;;;;23.20;16.10;;;;;;;3.72;100.00;98631.44;5062095;28;20200;-29
2020/12/30 07:46:18;;;;;;;26.13;16.90;;;;;;;3.75;100.00;98634.81;5058756;28;20263;-30
2020/12/30 07:49:08;;;;;;;25.70;18.37;;;;;;;3.83;100.00;98639.84;5060419;28;20216;-30
2020/12/30 07:51:57;;;;;;;26.10;17.47;;;;;;;3.80;100.00;98643.28;5059979;28;20610;-30
2020/12/30 07:54:43;;;;;;;25.67;18.40;;;;;;;3.76;100.00;98653.56;5058736;28;20196;-30
2020/12/30 07:57:30;;;;;;;24.00;16.77;;;;;;;3.86;100.00;98649.22;5060004;28;20304;-30
2020/12/30 08:00:17;;;;;;;29.57;18.50;;;;;;;3.71;100.00;98653.59;5059644;28;20208;-30
2020/12/30 08:03:04;;;;;;;27.47;18.37;;;;;;;3.67;100.00;98657.03;5059713;28;20215;-29
2020/12/30 08:05:51;;;;;;;25.80;17.90;;;;;;;3.70;100.00;98659.56;5060489;28;20200;-30
2020/12/30 08:08:42;;;;;;;24.43;16.63;;;;;;;4.01;100.00;98666.97;5059707;28;20590;-30
2020/12/30 08:11:28;;;;;;;29.57;18.13;;;;;;;3.85;100.00;98666.25;5058391;28;20209;-29
2020/12/30 08:14:15;;;;;;;30.93;17.83;;;;;;;3.80;100.00;98673.97;5059682;28;20196;-29
2020/12/30 08:17:02;;;;;;;28.60;17.67;;;;;;;3.72;100.00;98680.00;5060247;28;20197;-29
2020/12/30 08:19:50;;;;;;;33.30;19.60;;;;;;;3.76;100.00;98677.44;5059444;28;20225;-29
2020/12/30 08:22:37;;;;;;;30.70;18.67;;;;;;;3.71;100.00;98668.94;5059377;28;20346;-30
2020/12/30 08:25:23;;;;;;;26.23;18.00;;;;;;;3.83;100.00;98678.22;5059567;28;20737;-29
2020/12/30 08:28:09;;;;;;;28.93;18.20;;;;;;;3.83;100.00;98680.75;5059358;28;20196;-30
2020/12/30 08:31:00;;;;;;;25.10;17.97;;;;;;;3.99;100.00;98684.94;5060513;28;20204;-29
2020/12/30 08:33:50;;;;;;;27.13;18.43;;;;;;;3.87;100.00;98679.03;5064297;28;20243;-29
2020/12/30 08:36:42;;;;;;;28.07;19.03;;;;;;;4.12;100.00;98678.84;5063620;28;20660;-30
2020/12/30 08:39:30;;;;;;;26.90;18.47;;;;;;;4.10;100.00;98688.22;5062640;28;20228;-29
2020/12/30 08:42:59;;;;;;;28.93;17.43;;;;;;;4.14;100.00;98687.34;5064151;28;20266;-30
2020/12/30 08:46:00;;;;;;;24.40;16.57;;;;;;;4.29;100.00;98683.78;5023619;28;20320;-30
2020/12/30 08:48:49;;;;;;;26.00;16.63;;;;;;;4.03;100.00;98685.72;5062305;28;20200;-30
2020/12/30 08:51:36;;;;;;;23.23;16.80;;;;;;;4.19;100.00;98689.88;5063353;28;20256;-30
2020/12/30 08:54:26;;;;;;;25.30;17.17;;;;;;;4.27;100.00;98698.31;5062722;28;20221;-29
2020/12/30 08:57:18;;;;;;;26.97;16.90;;;;;;;4.20;100.00;98704.34;5062265;28;20307;-29
2020/12/30 09:00:18;;;;;;;24.97;17.80;;;;;;;4.34;100.00;98711.91;5063275;28;20189;-30
2020/12/30 09:03:12;;;;;;;23.80;17.13;;;;;;;4.25;100.00;98702.59;5061743;28;20209;-30
2020/12/30 09:05:59;;;;;;;23.23;17.73;;;;;;;4.30;100.00;98712.78;5061478;28;20206;-29
2020/12/30 09:08:45;;;;;;;23.10;16.07;;;;;;;4.37;100.00;98725.53;5062534;28;20286;-30
2020/12/30 09:11:33;;;;;;;24.00;17.07;;;;;;;4.41;100.00;98723.78;5061630;28;20204;-30
2020/12/30 09:14:20;;;;;;;24.23;17.63;;;;;;;4.33;100.00;98726.41;5062515;28;20225;-29
2020/12/30 09:17:13;;;;;;;25.97;16.83;;;;;;;4.25;100.00;98723.06;5062882;28;20200;-30
2020/12/30 09:20:11;;;;;;;22.37;16.53;;;;;;;4.26;100.00;98727.31;5061370;28;20282;-30
2020/12/30 09:23:00;;;;;;;27.77;17.07;;;;;;;4.45;100.00;98735.69;5062517;28;20255;-29
2020/12/30 09:25:51;;;;;;;25.67;16.83;;;;;;;4.06;100.00;98734.31;5061889;28;20232;-30
2020/12/30 09:28:40;;;;;;;27.17;18.67;;;;;;;4.22;100.00;98742.72;5063719;28;20205;-31
2020/12/30 09:31:26;;;;;;;29.27;18.43;;;;;;;4.24;100.00;98744.41;5062458;28;20275;-30
2020/12/30 09:34:17;;;;;;;29.10;19.27;;;;;;;4.42;100.00;98746.78;5061337;28;20204;-29
2020/12/30 09:37:02;;;;;;;28.53;19.77;;;;;;;4.13;100.00;98743.66;5062438;28;20284;-30
2020/12/30 09:40:03;;;;;;;27.87;19.47;;;;;;;4.34;100.00;98745.19;5061160;28;20228;-29
2020/12/30 09:42:50;;;;;;;28.83;19.20;;;;;;;4.20;100.00;98745.28;5060299;28;20728;-30
2020/12/30 09:45:44;;;;;;;25.90;18.57;;;;;;;4.43;100.00;98751.06;5061661;28;20202;-31
2020/12/30 09:48:30;;;;;;;29.87;20.73;;;;;;;4.28;100.00;98752.91;5061455;28;20291;-30
2020/12/30 09:51:19;;;;;;;28.40;19.53;;;;;;;4.27;100.00;98744.38;5062136;28;20287;-30
2020/12/30 09:54:05;;;;;;;29.10;18.90;;;;;;;4.35;100.00;98741.75;5060988;28;20201;-29
2020/12/30 09:56:52;;;;;;;28.30;18.87;;;;;;;4.58;100.00;98742.41;5061146;28;20259;-30
2020/12/30 09:59:38;;;;;;;28.00;19.20;;;;;;;4.78;100.00;98753.31;5061428;28;20322;-30
2020/12/30 10:02:27;;;;;;;28.43;19.80;;;;;;;4.75;100.00;98753.34;5060681;28;20614;-30
2020/12/30 10:05:13;;;;;;;23.47;17.60;;;;;;;4.86;100.00;98750.66;5060439;28;20354;-30
2020/12/30 10:07:59;;;;;;;24.30;17.93;;;;;;;4.96;100.00;98743.72;5060573;28;20201;-31
2020/12/30 10:10:47;;;;;;;31.27;19.90;;;;;;;4.84;100.00;98749.81;5060761;28;20590;-30
2020/12/30 10:13:35;;;;;;;28.37;18.97;;;;;;;4.88;100.00;98751.47;5060788;28;20611;-30
2020/12/30 10:16:21;;;;;;;28.97;18.60;;;;;;;4.93;100.00;98749.72;5060997;28;20302;-30
2020/12/30 10:19:08;;;;;;;28.67;17.73;;;;;;;4.69;100.00;98752.53;5060542;28;20642;-30
2020/12/30 10:21:56;;;;;;;26.87;19.10;;;;;;;4.89;100.00;98753.19;5059870;28;20202;-31
2020/12/30 10:24:44;;;;;;;27.73;19.17;;;;;;;5.14;100.00;98753.78;5059977;28;20245;-31
2020/12/30 10:27:30;;;;;;;26.83;17.43;;;;;;;4.67;100.00;98757.66;5061355;28;20563;-30
2020/12/30 10:30:16;;;;;;;28.63;20.13;;;;;;;4.81;100.00;98760.94;5060528;28;20238;-30
2020/12/30 10:33:03;;;;;;;27.83;19.07;;;;;;;4.83;100.00;98755.78;5061639;28;20269;-30
2020/12/30 10:35:50;;;;;;;25.33;17.67;;;;;;;5.42;100.00;98759.38;5060469;28;20469;-30
2020/12/30 10:38:36;;;;;;;26.07;18.50;;;;;;;5.46;100.00;98751.66;5059592;28;20627;-31
2020/12/30 10:41:22;;;;;;;25.50;18.17;;;;;;;5.31;100.00;98758.69;5060451;28;20203;-30
2020/12/30 10:44:08;;;;;;;29.93;19.10;;;;;;;4.95;100.00;98763.38;5060298;28;20210;-30
2020/12/30 10:46:56;;;;;;;32.43;19.93;;;;;;;5.23;100.00;98761.34;5059842;28;20254;-30
2020/12/30 10:49:46;;;;;;;28.60;18.30;;;;;;;5.14;100.00;98761.47;5059723;28;20218;-30
2020/12/30 10:52:43;;;;;;;25.27;17.73;;;;;;;5.14;100.00;98762.31;5060128;28;20211;-32
2020/12/30 10:56:13;;;;;;;26.13;18.27;;;;;;;5.47;100.00;98762.75;5057946;28;20208;-32
2020/12/30 10:59:04;;;;;;;27.60;19.77;;;;;;;5.86;100.00;98751.94;5059282;28;20288;-30
2020/12/30 11:01:51;;;;;;;26.23;16.50;;;;;;;5.68;100.00;98762.47;5059247;28;20481;-30
2020/12/30 11:04:37;;;;;;;26.27;18.37;;;;;;;5.49;100.00;98756.75;5059076;28;20435;-30
2020/12/30 11:07:23;;;;;;;26.83;18.47;;;;;;;6.04;100.00;98761.13;5059052;28;20338;-30
2020/12/30 11:10:10;;;;;;;23.33;17.07;;;;;;;5.50;100.00;98760.16;5060317;28;20256;-31
2020/12/30 11:12:56;;;;;;;23.00;16.80;;;;;;;5.73;100.00;98765.84;5058647;28;20285;-31
2020/12/30 11:15:42;;;;;;;22.13;15.80;;;;;;;5.54;100.00;98765.22;5059760;28;20200;-31
2020/12/30 11:18:29;;;;;;;23.90;16.30;;;;;;;6.09;100.00;98761.06;5058850;28;20224;-31
2020/12/30 11:21:17;;;;;;;25.30;16.40;;;;;;;5.60;100.00;98761.72;5058913;28;20277;-30
2020/12/30 11:24:03;;;;;;;23.53;16.23;;;;;;;5.82;100.00;98762.28;5059266;28;20656;-30
2020/12/30 11:26:51;;;;;;;26.57;16.83;;;;;;;5.90;100.00;98760.50;5058738;28;20203;-30
2020/12/30 11:29:37;;;;;;;23.40;15.17;;;;;;;5.36;100.00;98759.50;5058845;28;20210;-31
2020/12/30 11:32:24;;;;;;;26.93;17.03;;;;;;;5.45;100.00;98754.22;5059259;28;20203;-30
2020/12/30 11:35:11;;;;;;;26.10;16.03;;;;;;;5.29;100.00;98758.72;5058768;28;20203;-30
2020/12/30 11:37:57;;;;;;;21.07;15.50;;;;;;;5.33;100.00;98754.41;5059132;28;20224;-30
2020/12/30 11:40:43;;;;;;;23.53;16.80;;;;;;;5.50;100.00;98749.91;5058160;28;20297;-30
2020/12/30 11:43:30;;;;;;;24.37;16.13;;;;;;;5.43;100.00;98745.69;5058316;28;20202;-31
2020/12/30 11:46:16;;;;;;;23.93;16.80;;;;;;;5.73;100.00;98750.44;5058956;28;20410;-30
2020/12/30 11:49:02;;;;;;;25.07;17.17;;;;;;;5.72;100.00;98747.91;5058510;28;20633;-30
2020/12/30 11:51:48;;;;;;;26.00;16.60;;;;;;;5.56;100.00;98751.53;5057666;28;20613;-30
2020/12/30 11:54:34;;;;;;;22.60;17.63;;;;;;;5.59;100.00;98751.50;5057488;28;20204;-30
2020/12/30 11:57:20;;;;;;;20.07;15.07;;;;;;;5.54;100.00;98749.84;5057655;28;20260;-30
2020/12/30 12:00:11;;;;;;;22.47;16.47;;;;;;;5.73;100.00;98750.44;5057147;28;20320;-30
2020/12/30 12:02:57;;;;;;;24.43;17.07;;;;;;;5.71;100.00;98748.75;5057038;28;20197;-30
2020/12/30 12:05:49;;;;;;;21.83;15.70;;;;;;;5.79;100.00;98750.38;5056831;28;20208;-31
2020/12/30 12:08:35;;;;;;;22.87;15.27;;;;;;;5.59;100.00;98754.06;5056418;28;20211;-30
2020/12/30 12:11:26;;;;;;;22.37;15.60;;;;;;;5.52;100.00;98759.28;5045236;28;20206;-31
2020/12/30 12:14:12;;;;;;;20.23;15.07;;;;;;;5.52;100.00;98761.00;5042672;28;20226;-30
2020/12/30 12:16:59;;;;;;;21.13;15.67;;;;;;;5.29;100.00;98757.84;5056764;28;20203;-30
2020/12/30 12:19:46;;;;;;;20.70;15.43;;;;;;;5.51;100.00;98751.59;5056038;28;20231;-30
2020/12/30 12:22:32;;;;;;;19.80;15.50;;;;;;;5.41;100.00;98758.53;5057356;28;20216;-30
2020/12/30 12:25:21;;;;;;;24.03;16.07;;;;;;;5.40;100.00;98753.44;5056496;28;20257;-30
2020/12/30 12:28:12;;;;;;;22.30;16.40;;;;;;;5.36;100.00;98767.19;5056648;28;20206;-30
2020/12/30 12:30:59;;;;;;;28.80;18.77;;;;;;;5.36;100.00;98765.47;5057361;28;20215;-30
2020/12/30 12:33:46;;;;;;;30.00;18.03;;;;;;;5.44;100.00;98765.34;5056604;28;20249;-29
2020/12/30 12:36:32;;;;;;;25.50;18.00;;;;;;;5.09;100.00;98758.09;5056792;28;20195;-29
2020/12/30 12:39:18;;;;;;;28.70;18.33;;;;;;;5.59;100.00;98762.63;5056809;28;20228;-30
2020/12/30 12:42:04;;;;;;;29.77;18.37;;;;;;;5.18;100.00;98761.41;5056337;28;20210;-30
2020/12/30 12:44:55;;;;;;;27.70;16.80;;;;;;;5.15;100.00;98769.13;5036497;28;20235;-30
2020/12/30 12:47:42;;;;;;;23.93;17.37;;;;;;;5.14;100.00;98766.59;5053175;28;20205;-30
2020/12/30 12:50:32;;;;;;;24.83;17.80;;;;;;;5.24;100.00;98770.72;5055829;28;20257;-30
2020/12/30 12:53:20;;;;;;;23.70;17.60;;;;;;;5.34;100.00;98768.91;5037274;28;20305;-30